YO7MGN Weather Reports


Display with metric or nautical units.
time (UTC)temp
F
wind
direction
speed
MPH
gust
MPH
rain 1hr
in
rain 24hr
in
rain mn
in
humidity
%
barometer
mb
20190119110110 37 5 4.0 13.0 0.00 0.00 0.00 85 1021.9
20190119104549 37 360 1.0 8.0 0.00 0.00 0.00 85 1021.8
20190119103109 38 23 1.0 12.0 0.00 0.00 0.00 83 1021.8
20190119101629 39 11 0.0 3.0 0.00 0.00 0.00 83 1021.6
20190119100132 39 338 0.0 4.0 0.00 0.00 0.00 81 1021.6
20190119094553 38 350 1.0 6.0 0.00 0.00 0.00 81 1021.5
20190119093055 38 355 0.0 8.0 0.00 0.00 0.00 82 1021.4
20190119091546 39 360 0.0 6.0 0.00 0.00 0.00 82 1021.5
20190119090123 39 5 1.0 5.0 0.00 0.00 0.00 81 1021.3
20190119084532 39 5 0.0 4.0 0.00 0.00 0.00 80 1021.1
20190119083031 39 346 1.0 4.0 0.00 0.00 0.00 77 1020.9
20190119081528 40 360 0.0 3.0 0.00 0.00 0.00 76 1020.6
20190119080023 39 355 0.0 3.0 0.00 0.00 0.00 78 1020.3
20190119074525 38 5 1.0 4.0 0.00 0.00 0.00 81 1020.0
20190119073011 37 170 0.0 1.0 0.00 0.00 0.00 83 1019.6
20190119071518 37 170 0.0 2.0 0.00 0.00 0.00 83 1019.6
20190119070006 37 170 0.0 2.0 0.00 0.00 0.00 83 1019.4
20190119064630 37 172 0.0 1.0 0.00 0.00 0.00 83 1019.1
20190119063213 36 172 0.0 1.0 0.00 0.00 0.00 84 1018.9
20190119061645 36 169 0.0 2.0 0.00 0.00 0.00 84 1018.7
20190119060122 36 169 0.0 0.0 0.00 0.00 0.00 84 1018.4
20190119054643 36 169 0.0 0.0 0.00 0.00 0.00 84 1018.3
20190119053204 37 169 0.0 1.0 0.00 0.00 0.00 84 1018.4
20190119051601 37 169 0.0 1.0 0.00 0.00 0.00 84 1018.4
20190119050117 36 175 0.0 1.0 0.00 0.00 0.00 83 1018.3
20190119044639 37 175 0.0 2.0 0.00 0.00 0.00 83 1017.9
20190119043137 37 174 0.0 2.0 0.00 0.00 0.00 83 1017.8
20190119041643 37 174 0.0 2.0 0.00 0.00 0.00 83 1017.7
20190119040127 37 177 0.0 1.0 0.00 0.00 0.00 83 1017.6
20190119034605 37 175 0.0 3.0 0.00 0.00 0.00 82 1017.6
20190119033100 37 159 0.0 3.0 0.00 0.00 0.00 82 1017.5
20190119031642 37 188 1.0 5.0 0.00 0.00 0.00 83 1017.4
20190119030153 38 160 0.0 3.0 0.00 0.00 0.00 83 1017.4
20190119024614 38 164 1.0 3.0 0.00 0.00 0.00 84 1017.5
20190119023214 38 181 0.0 1.0 0.00 0.00 0.00 85 1017.4
20190119021617 38 181 0.0 1.0 0.00 0.00 0.00 85 1017.3
20190119020112 38 182 0.0 2.0 0.00 0.00 0.00 84 1017.2
20190119014622 38 178 1.0 3.0 0.00 0.00 0.00 84 1017.3
20190119013048 37 169 1.0 5.0 0.00 0.00 0.00 85 1017.0
20190119011551 37 108 0.0 2.0 0.00 0.00 0.00 83 1016.9
20190119010100 37 111 0.0 1.0 0.00 0.00 0.00 83 1017.0
20190119004607 37 112 0.0 1.0 0.00 0.00 0.00 83 1017.1
20190118230030 35 49 0.0 0.0 0.00 0.00 0.00 85 1016.4
20190118224520 35 49 0.0 0.0 0.00 0.00 0.00 83 1016.6
20190118223023 35 49 0.0 0.0 0.00 0.00 0.00 83 1016.4
20190118221534 35 49 0.0 0.0 0.00 0.00 0.00 83 1016.4
20190118220014 35 49 0.0 0.0 0.00 0.00 0.00 83 1016.3
20190118214514 36 49 0.0 0.0 0.00 0.00 0.00 82 1016.3
20190118213017 36 49 0.0 0.0 0.00 0.00 0.00 80 1016.2
20190118211526 37 49 0.0 0.0 0.00 0.00 0.00 79 1016.1
20190118210012 37 49 0.0 1.0 0.00 0.00 0.00 78 1015.8
20190118204527 38 52 0.0 1.0 0.00 0.00 0.00 77 1015.5
20190118203014 39 52 0.0 1.0 0.00 0.00 0.00 78 1015.4
20190118201505 39 19 0.0 0.0 0.00 0.00 0.00 80 1015.3
20190118200005 39 19 0.0 0.0 0.00 0.00 0.00 79 1015.1
20190118194503 40 19 0.0 0.0 0.00 0.00 0.00 79 1015.1
20190118193003 40 19 0.0 0.0 0.00 0.00 0.00 77 1015.0
20190118191502 40 19 0.0 0.0 0.00 0.00 0.00 76 1014.9
20190118190156 40 19 0.0 0.0 0.00 0.00 0.00 76 1014.7
20190118184657 41 19 0.0 0.0 0.00 0.00 0.00 77 1014.6
20190118183224 41 19 0.0 0.0 0.00 0.00 0.00 77 1014.8
20190118181622 42 19 0.0 0.0 0.00 0.00 0.00 76 1014.7
20190118180315 42 19 0.0 0.0 0.00 0.00 0.00 74 1014.8
20190118174627 42 19 0.0 0.0 0.00 0.00 0.00 72 1014.8
20190118173150 43 19 0.0 0.0 0.00 0.00 0.00 71 1014.7
20190118171615 43 19 0.0 0.0 0.00 0.00 0.00 74 1014.8
20190118170140 43 19 0.0 0.0 0.00 0.00 0.00 74 1014.7
20190118164705 43 19 0.0 0.0 0.00 0.00 0.00 73 1014.7
20190118163155 44 19 0.0 0.0 0.00 0.00 0.00 68 1014.6
20190118161623 44 19 0.0 0.0 0.00 0.00 0.00 67 1014.6
20190118160124 45 19 0.0 0.0 0.00 0.00 0.00 65 1014.7
20190118154627 46 19 0.0 0.0 0.00 0.00 0.00 63 1014.5
20190118153247 47 19 0.0 0.0 0.00 0.00 0.00 60 1014.4
20190118151759 47 19 0.0 1.0 0.00 0.00 0.00 60 1014.1
20190118150157 48 10 0.0 3.0 0.00 0.00 0.00 58 1014.1
20190118144651 48 355 0.0 1.0 0.00 0.00 0.00 57 1014.1
20190118143120 48 5 2.0 6.0 0.00 0.00 0.00 58 1013.9
20190118141640 49 88 0.0 0.0 0.00 0.00 0.00 61 1014.1
20190118140210 50 88 0.0 0.0 0.00 0.00 0.00 59 1014.2
20190118134604 51 88 0.0 1.0 0.00 0.00 0.00 55 1014.2
20190118133108 51 88 0.0 1.0 0.00 0.00 0.00 56 1014.1
20190118131648 50 88 0.0 2.0 0.00 0.00 0.00 56 1014.2
20190118130144 53 139 0.0 1.0 0.00 0.00 0.00 52 1014.2
20190118124631 54 138 0.0 2.0 0.00 0.00 0.00 51 1014.1
20190118123132 55 157 0.0 1.0 0.00 0.00 0.00 49 1014.1
20190118121632 55 157 0.0 2.0 0.00 0.00 0.00 49 1014.0
20190118120106 52 27 0.0 1.0 0.00 0.00 0.00 54 1013.9
20190118114554 52 26 0.0 1.0 0.00 0.00 0.00 55 1014.0
20190118113117 54 24 0.0 2.0 0.00 0.00 0.00 51 1014.1
20190118111621 54 15 0.0 1.0 0.00 0.00 0.00 51 1014.1